Terminal Aerodrome Forecast
Issued by NWS Wichita, KS

Home | Current Version | Previous Version | Text Only | Print | Product List | Glossary Off
Versions: 1 2 3 4 5 6 7 8 9 10 11 12 13 14 15 16 17 18 19 20 21

108
FTUS43 KICT 160530
TAFICT
TAF
KICT 160530Z 1606/1706 VRB04KT P6SM SCT250
     FM161300 13007KT P6SM FEW250
     FM161600 15012KT P6SM FEW250
     FM170200 16013KT P6SM BKN100
     FM170300 16013KT P6SM OVC025=

USA.gov is the U.S. government's official web portal to all federal, state and local government web resources and services.